Time;durP1;ratioP1;P1;durP2;ratioP2;P2;SDS_P1;SDS_P2;PMS_P1;PMS_P2;Temp;Humidity;BMP_temperature;BMP_pressure;BME280_temperature;BME280_humidity;BME280_pressure;Samples;Min_cycle;Max_cycle;Signal;HPM_P1;HPM_P2
2023/08/28 00:01:03;;;;;;;2.47;2.28;;;15.10;99.90;;;;;;2495238;23;20011;-71
2023/08/28 00:02:03;;;;;;;2.55;1.98;;;15.10;99.90;;;;;;2495207;23;20010;-72
2023/08/28 00:03:04;;;;;;;3.05;1.98;;;15.10;99.90;;;;;;2494391;23;20008;-72
2023/08/28 00:04:05;;;;;;;3.38;2.50;;;15.10;99.90;;;;;;2493559;23;20441;-71
2023/08/28 00:05:06;;;;;;;2.28;2.10;;;15.10;99.90;;;;;;2483191;23;20132;-71
2023/08/28 00:06:06;;;;;;;3.75;2.30;;;15.10;99.90;;;;;;2482822;23;20008;-72
2023/08/28 00:07:07;;;;;;;2.72;2.15;;;15.10;99.90;;;;;;2482918;23;20444;-72
2023/08/28 00:08:08;;;;;;;2.30;2.10;;;15.10;99.90;;;;;;2483252;23;20007;-71
2023/08/28 00:09:08;;;;;;;2.67;2.47;;;15.10;99.90;;;;;;2495363;23;20424;-71
2023/08/28 00:10:09;;;;;;;2.78;2.20;;;15.10;99.90;;;;;;2493870;23;20003;-71
2023/08/28 00:11:09;;;;;;;3.75;1.88;;;15.10;99.90;;;;;;2495815;23;20345;-71
2023/08/28 00:12:10;;;;;;;3.78;2.10;;;15.10;99.90;;;;;;2493808;23;20021;-71
2023/08/28 00:13:10;;;;;;;2.00;1.73;;;15.10;99.90;;;;;;2495889;23;20010;-71
2023/08/28 00:14:11;;;;;;;2.92;2.13;;;15.10;99.90;;;;;;2495212;23;20033;-71
2023/08/28 00:15:12;;;;;;;2.70;2.30;;;15.10;99.90;;;;;;2483096;23;20008;-71
2023/08/28 00:16:13;;;;;;;3.03;2.22;;;15.10;99.90;;;;;;2480924;23;20067;-71
2023/08/28 00:17:13;;;;;;;3.08;1.83;;;15.10;99.90;;;;;;2495582;23;20030;-71
2023/08/28 00:18:14;;;;;;;3.67;2.40;;;15.10;99.90;;;;;;2495336;23;20014;-71
2023/08/28 00:19:15;;;;;;;3.72;2.40;;;15.10;99.90;;;;;;2495471;23;20082;-71
2023/08/28 00:20:16;;;;;;;1.88;1.77;;;15.10;99.90;;;;;;2482013;23;20011;-71
2023/08/28 00:21:16;;;;;;;2.85;2.20;;;15.10;99.90;;;;;;2482650;23;20123;-71
2023/08/28 00:22:18;;;;;;;2.45;2.25;;;15.10;99.90;;;;;;2495149;23;20095;-71
2023/08/28 00:23:18;;;;;;;2.92;2.10;;;15.10;99.90;;;;;;2495038;23;20429;-71
2023/08/28 00:24:19;;;;;;;2.05;1.80;;;15.10;99.90;;;;;;2495108;23;20519;-71
2023/08/28 00:25:19;;;;;;;2.15;1.98;;;15.10;99.90;;;;;;2495544;23;20031;-71
2023/08/28 00:26:20;;;;;;;4.75;2.20;;;15.10;99.90;;;;;;2494385;23;20034;-71
2023/08/28 00:27:20;;;;;;;4.53;2.20;;;15.10;99.90;;;;;;2482958;23;20083;-71
2023/08/28 00:28:21;;;;;;;3.83;2.22;;;15.10;99.90;;;;;;2482553;23;20011;-71
2023/08/28 00:29:21;;;;;;;2.72;2.22;;;15.10;99.90;;;;;;2483484;23;20467;-72
2023/08/28 00:30:22;;;;;;;4.28;2.10;;;15.10;99.90;;;;;;2493647;23;20578;-71
2023/08/28 00:31:22;;;;;;;4.22;2.40;;;15.10;99.90;;;;;;2494372;23;20388;-71
2023/08/28 00:32:24;;;;;;;3.13;1.90;;;15.10;99.90;;;;;;2482477;23;20087;-71
2023/08/28 00:33:25;;;;;;;4.18;2.40;;;15.10;99.90;;;;;;2482675;23;20381;-71
2023/08/28 00:34:26;;;;;;;2.03;1.52;;;15.10;99.90;;;;;;2493795;23;20086;-71
2023/08/28 00:35:26;;;;;;;2.72;2.00;;;15.10;99.90;;;;;;2495692;23;20015;-71
2023/08/28 00:36:27;;;;;;;3.53;1.92;;;15.10;99.90;;;;;;2495310;23;20090;-72
2023/08/28 00:37:27;;;;;;;3.15;2.00;;;15.00;99.90;;;;;;2495635;23;20055;-72
2023/08/28 00:38:28;;;;;;;2.05;1.85;;;15.10;99.90;;;;;;2495076;23;20044;-72
2023/08/28 00:39:28;;;;;;;2.35;1.83;;;15.00;99.90;;;;;;2495903;23;20011;-71
2023/08/28 00:40:29;;;;;;;2.70;1.98;;;15.10;99.90;;;;;;2494987;23;20003;-72
2023/08/28 00:41:29;;;;;;;3.45;1.90;;;15.10;99.90;;;;;;2495490;23;20007;-72
2023/08/28 00:42:30;;;;;;;2.33;2.15;;;15.00;99.90;;;;;;2494424;23;20046;-71
2023/08/28 00:43:30;;;;;;;3.03;1.70;;;15.10;99.90;;;;;;2496411;23;20505;-71
2023/08/28 00:44:31;;;;;;;2.30;1.88;;;15.00;99.90;;;;;;2495176;23;20067;-71
2023/08/28 00:45:33;;;;;;;4.15;2.13;;;15.00;99.90;;;;;;2496338;23;20003;-72
2023/08/28 00:46:33;;;;;;;3.15;2.10;;;15.00;99.90;;;;;;2494661;23;20356;-72
2023/08/28 00:47:35;;;;;;;1.80;1.70;;;15.00;99.90;;;;;;2495054;23;20073;-71
2023/08/28 00:48:35;;;;;;;1.98;1.80;;;15.00;99.90;;;;;;2495132;23;20015;-72
2023/08/28 00:49:36;;;;;;;2.35;1.40;;;15.00;99.90;;;;;;2495148;23;20019;-71
2023/08/28 00:50:37;;;;;;;1.63;1.50;;;15.00;99.90;;;;;;2495325;23;20035;-71
2023/08/28 00:51:38;;;;;;;1.58;1.48;;;15.00;99.90;;;;;;2496336;23;20676;-72
2023/08/28 00:52:39;;;;;;;3.20;1.63;;;15.00;99.90;;;;;;2495240;23;20389;-71
2023/08/28 00:53:40;;;;;;;2.80;1.98;;;15.00;99.90;;;;;;2496065;23;20082;-71
2023/08/28 00:54:41;;;;;;;4.50;2.10;;;15.00;99.90;;;;;;2496067;23;20007;-71
2023/08/28 00:55:42;;;;;;;3.97;1.63;;;15.00;99.90;;;;;;2495850;23;20018;-71
2023/08/28 00:56:43;;;;;;;4.30;2.05;;;14.90;99.90;;;;;;2496395;23;20015;-71
2023/08/28 00:57:44;;;;;;;2.58;2.30;;;14.90;99.90;;;;;;2495434;23;20007;-72
2023/08/28 00:58:44;;;;;;;2.55;1.77;;;14.90;99.90;;;;;;2483563;23;20373;-72
2023/08/28 00:59:45;;;;;;;3.08;2.08;;;14.90;99.90;;;;;;2483246;23;20076;-71
2023/08/28 01:00:46;;;;;;;2.25;1.50;;;14.90;99.90;;;;;;2496037;23;20419;-72
2023/08/28 01:01:47;;;;;;;5.95;2.33;;;14.90;99.90;;;;;;2495640;23;20007;-72
2023/08/28 01:02:48;;;;;;;3.78;2.00;;;14.90;99.90;;;;;;2495675;23;20602;-72
2023/08/28 01:03:48;;;;;;;2.47;2.08;;;14.90;99.90;;;;;;2495852;23;20007;-72
2023/08/28 01:04:49;;;;;;;5.18;1.90;;;14.90;99.90;;;;;;2496234;23;20022;-72
2023/08/28 01:06:26;;;;;;;1.90;1.70;;;14.90;99.90;;;;;;2494718;23;20034;-72
2023/08/28 01:07:39;;;;;;;2.63;2.08;;;14.90;99.90;;;;;;2495721;23;20014;-71
2023/08/28 01:08:45;;;;;;;2.45;2.20;;;14.80;99.90;;;;;;2496073;23;20440;-72
2023/08/28 01:10:07;;;;;;;2.35;1.60;;;14.80;99.90;;;;;;2495080;23;20019;-72
2023/08/28 01:11:14;;;;;;;2.15;1.88;;;14.80;99.90;;;;;;2496002;23;20003;-72
2023/08/28 01:12:23;;;;;;;2.58;2.15;;;14.80;99.90;;;;;;2494893;23;20094;-71
2023/08/28 01:13:36;;;;;;;3.85;2.83;;;14.80;99.90;;;;;;2495765;23;20018;-71
2023/08/28 01:14:58;;;;;;;2.10;1.73;;;14.80;99.90;;;;;;2495931;23;20000;-71
2023/08/28 01:15:59;;;;;;;2.33;1.80;;;14.70;99.90;;;;;;2496314;23;19995;-71
2023/08/28 01:17:05;;;;;;;2.88;2.08;;;14.70;99.90;;;;;;2495828;23;20428;-71
2023/08/28 01:18:07;;;;;;;2.97;2.00;;;14.70;99.90;;;;;;2496612;23;20046;-72
2023/08/28 01:19:18;;;;;;;2.30;2.10;;;14.70;99.90;;;;;;2496199;23;20123;-72
2023/08/28 01:20:20;;;;;;;7.20;2.63;;;14.70;99.90;;;;;;2496563;23;20013;-71
2023/08/28 01:21:21;;;;;;;2.30;1.70;;;14.70;99.90;;;;;;2495455;23;20029;-71
2023/08/28 01:22:28;;;;;;;2.75;1.92;;;14.70;99.90;;;;;;2495671;23;20015;-71
2023/08/28 01:23:49;;;;;;;2.60;2.20;;;14.70;99.90;;;;;;2496155;23;20122;-71
2023/08/28 01:24:52;;;;;;;1.80;1.63;;;14.70;99.90;;;;;;2495302;23;20007;-72
2023/08/28 01:25:55;;;;;;;3.03;1.85;;;14.70;99.90;;;;;;2496286;23;20007;-71
2023/08/28 01:26:56;;;;;;;3.97;1.80;;;14.70;99.90;;;;;;2495876;23;20003;-71
2023/08/28 01:27:58;;;;;;;2.65;1.80;;;14.60;99.90;;;;;;2495109;23;20027;-72
2023/08/28 01:28:59;;;;;;;2.28;1.92;;;14.70;99.90;;;;;;2494144;23;20070;-71
2023/08/28 01:30:09;;;;;;;4.00;2.30;;;14.60;99.90;;;;;;2496337;23;20010;-71
2023/08/28 01:31:09;;;;;;;;;;;14.60;99.90;;;;;;2496354;23;20011;-71
2023/08/28 01:32:10;;;;;;;4.15;2.10;;;14.50;99.90;;;;;;2494570;23;19988;-71
2023/08/28 01:33:11;;;;;;;4.68;2.30;;;14.60;99.90;;;;;;2496192;23;20011;-71
2023/08/28 01:34:11;;;;;;;3.15;2.00;;;14.60;99.90;;;;;;2495318;23;20027;-71
2023/08/28 01:35:30;;;;;;;2.60;1.73;;;14.60;99.90;;;;;;2483759;23;20004;-71
2023/08/28 01:36:50;;;;;;;3.08;1.83;;;14.60;99.90;;;;;;2487187;23;20007;-71
2023/08/28 01:38:41;;;;;;;2.75;1.85;;;14.60;99.90;;;;;;2496284;23;20003;-71
2023/08/28 01:39:44;;;;;;;;;;;14.50;99.90;;;;;;2437491;24;20301;-71
2023/08/28 01:41:06;;;;;;;1.75;1.60;;;14.40;99.90;;;;;;2437679;24;19907;-71
2023/08/28 01:42:09;;;;;;;3.97;1.65;;;14.40;99.90;;;;;;2463015;23;20507;-72
2023/08/28 01:43:12;;;;;;;3.13;1.85;;;14.40;99.90;;;;;;2494345;23;20110;-71
2023/08/28 01:44:16;;;;;;;4.93;2.10;;;14.40;99.90;;;;;;2493348;23;20110;-71
2023/08/28 01:45:18;;;;;;;5.97;1.98;;;14.40;99.90;;;;;;2495831;23;20011;-72
2023/08/28 01:46:19;;;;;;;1.80;1.70;;;14.40;99.90;;;;;;2495824;23;20028;-71
2023/08/28 01:47:22;;;;;;;2.03;1.70;;;14.40;99.90;;;;;;2495918;23;20370;-71
2023/08/28 01:48:26;;;;;;;3.60;1.77;;;14.40;99.90;;;;;;2496305;23;20023;-72
2023/08/28 01:49:32;;;;;;;1.88;1.73;;;14.50;99.90;;;;;;2495705;23;20015;-71
2023/08/28 01:50:33;;;;;;;2.53;1.90;;;14.40;99.90;;;;;;2495925;23;20027;-71
2023/08/28 01:51:33;;;;;;;2.13;1.88;;;14.40;99.90;;;;;;2496490;23;20018;-71
2023/08/28 01:52:34;;;;;;;2.03;1.85;;;14.40;99.90;;;;;;2494783;23;20728;-71
2023/08/28 01:53:34;;;;;;;2.00;1.70;;;14.40;99.90;;;;;;2495497;23;20007;-71
2023/08/28 01:54:35;;;;;;;4.65;2.00;;;14.40;99.90;;;;;;2483633;23;20094;-72
2023/08/28 01:55:44;;;;;;;4.50;2.50;;;14.40;99.90;;;;;;2483504;23;20008;-71
2023/08/28 01:56:45;;;;;;;2.75;1.70;;;14.40;99.90;;;;;;2496023;23;20004;-72
2023/08/28 01:57:46;;;;;;;3.58;2.05;;;14.40;99.90;;;;;;2494810;23;20423;-71
2023/08/28 01:58:55;;;;;;;4.30;1.73;;;14.40;99.90;;;;;;2495239;23;20004;-71
2023/08/28 01:59:55;;;;;;;6.45;2.80;;;14.40;99.90;;;;;;2495754;23;20028;-71
2023/08/28 02:00:56;;;;;;;2.30;2.10;;;14.40;99.90;;;;;;2496326;23;20028;-71
2023/08/28 02:01:56;;;;;;;2.13;1.80;;;14.40;99.90;;;;;;2495085;23;19995;-72
2023/08/28 02:02:57;;;;;;;3.40;2.05;;;14.40;99.90;;;;;;2495725;23;20003;-72
2023/08/28 02:03:57;;;;;;;2.60;2.03;;;14.40;99.90;;;;;;2495446;23;19999;-71
2023/08/28 02:04:58;;;;;;;4.40;2.03;;;14.30;99.90;;;;;;2483264;23;20087;-71
2023/08/28 02:05:58;;;;;;;2.13;2.00;;;14.30;99.90;;;;;;2482358;23;20014;-72
2023/08/28 02:06:59;;;;;;;3.75;1.90;;;14.30;99.90;;;;;;2495635;23;20003;-71
2023/08/28 02:08:00;;;;;;;3.53;2.15;;;14.30;99.90;;;;;;2495970;23;20071;-72
2023/08/28 02:09:00;;;;;;;3.35;2.20;;;14.30;99.90;;;;;;2493000;23;19999;-72
2023/08/28 02:10:01;;;;;;;3.92;2.55;;;14.30;99.90;;;;;;2496002;23;20010;-71
2023/08/28 02:11:01;;;;;;;3.28;2.20;;;14.30;99.90;;;;;;2495412;23;20026;-72
2023/08/28 02:12:02;;;;;;;6.32;2.72;;;14.30;99.90;;;;;;2495188;23;20011;-72
2023/08/28 02:13:03;;;;;;;2.78;2.30;;;14.30;99.90;;;;;;2495321;23;20597;-71
2023/08/28 02:14:04;;;;;;;4.20;2.42;;;14.30;99.90;;;;;;2483643;23;20006;-72
2023/08/28 02:15:05;;;;;;;5.38;2.28;;;14.30;99.90;;;;;;2483127;23;20007;-72
2023/08/28 02:16:05;;;;;;;2.88;1.52;;;14.30;99.90;;;;;;2482240;23;20000;-71
2023/08/28 02:17:06;;;;;;;3.97;1.98;;;14.30;99.90;;;;;;2494103;23;20005;-71
2023/08/28 02:18:06;;;;;;;3.03;2.30;;;14.30;99.90;;;;;;2483413;23;20407;-71
2023/08/28 02:19:07;;;;;;;4.03;2.60;;;14.30;99.90;;;;;;2483275;23;20004;-71
2023/08/28 02:20:11;;;;;;;3.25;2.15;;;14.30;99.90;;;;;;2495023;23;19999;-72
2023/08/28 02:21:12;;;;;;;3.10;2.00;;;14.30;99.90;;;;;;2495354;23;20444;-72
2023/08/28 02:22:12;;;;;;;5.50;2.65;;;14.30;99.90;;;;;;2494991;23;20333;-72
2023/08/28 02:23:13;;;;;;;1.83;1.73;;;14.30;99.90;;;;;;2494911;23;20011;-71
2023/08/28 02:24:13;;;;;;;2.58;2.20;;;14.30;99.90;;;;;;2494964;23;20082;-71
2023/08/28 02:25:14;;;;;;;2.15;1.95;;;14.30;99.90;;;;;;2483264;23;20452;-71
2023/08/28 02:26:14;;;;;;;4.75;2.00;;;14.20;99.90;;;;;;2483536;23;20419;-71
2023/08/28 02:27:15;;;;;;;4.53;2.03;;;14.20;99.90;;;;;;2495483;23;20055;-71
2023/08/28 02:28:19;;;;;;;2.08;1.90;;;14.20;99.90;;;;;;2494853;23;20015;-71
2023/08/28 02:29:19;;;;;;;2.47;2.10;;;14.20;99.90;;;;;;2495227;23;20003;-72
2023/08/28 02:30:20;;;;;;;4.47;2.40;;;14.20;99.90;;;;;;2495882;23;20603;-72
2023/08/28 02:31:20;;;;;;;2.05;1.90;;;14.20;99.90;;;;;;2496135;23;20007;-71
2023/08/28 02:32:21;;;;;;;3.88;2.03;;;14.20;99.90;;;;;;2494768;23;20014;-72
2023/08/28 02:33:21;;;;;;;4.30;2.40;;;14.20;99.90;;;;;;2495806;23;20007;-72
2023/08/28 02:34:22;;;;;;;2.78;1.90;;;14.20;99.90;;;;;;2496112;23;20660;-72
2023/08/28 02:35:22;;;;;;;1.90;1.80;;;14.20;99.90;;;;;;2495080;23;20058;-71
2023/08/28 02:36:23;;;;;;;3.55;1.92;;;14.20;99.90;;;;;;2496240;23;20042;-72
2023/08/28 02:37:23;;;;;;;2.35;1.90;;;14.20;99.90;;;;;;2495051;23;20051;-72
2023/08/28 02:38:24;;;;;;;2.17;1.95;;;14.20;99.90;;;;;;2495579;23;20093;-72
2023/08/28 02:39:24;;;;;;;2.30;2.10;;;14.20;99.90;;;;;;2495149;23;20007;-72
2023/08/28 02:40:25;;;;;;;1.77;1.67;;;14.20;99.90;;;;;;2495467;23;20007;-72
2023/08/28 02:41:26;;;;;;;1.50;1.40;;;14.20;99.90;;;;;;2495026;23;20416;-72
2023/08/28 02:42:26;;;;;;;3.55;2.05;;;14.10;99.90;;;;;;2495051;23;20015;-72
2023/08/28 02:43:27;;;;;;;3.00;2.10;;;14.20;99.90;;;;;;2494586;23;20025;-72
2023/08/28 02:44:27;;;;;;;2.08;1.98;;;14.10;99.90;;;;;;2482743;23;20400;-72
2023/08/28 02:45:28;;;;;;;2.63;2.25;;;14.10;99.90;;;;;;2483479;23;20050;-72
2023/08/28 02:46:28;;;;;;;3.03;2.22;;;14.10;99.90;;;;;;2482771;23;20016;-72
2023/08/28 02:47:29;;;;;;;2.25;1.63;;;14.10;99.90;;;;;;2483291;23;20018;-72
2023/08/28 02:48:30;;;;;;;3.25;2.05;;;14.10;99.90;;;;;;2495210;23;20034;-72
2023/08/28 02:49:31;;;;;;;2.83;2.40;;;14.10;99.90;;;;;;2495761;23;20012;-72
2023/08/28 02:50:32;;;;;;;4.68;2.63;;;14.10;99.90;;;;;;2496089;23;20031;-72
2023/08/28 02:51:33;;;;;;;6.38;2.65;;;14.10;99.90;;;;;;2495690;23;20007;-72
2023/08/28 02:52:33;;;;;;;3.28;2.97;;;14.10;99.90;;;;;;2482361;23;20012;-72
2023/08/28 02:53:34;;;;;;;5.97;3.08;;;14.10;99.90;;;;;;2482930;23;20437;-72
2023/08/28 02:54:34;;;;;;;3.50;3.20;;;14.10;99.90;;;;;;2483003;23;20119;-72
2023/08/28 02:55:40;;;;;;;2.88;2.53;;;14.10;99.90;;;;;;2495516;23;20018;-72
2023/08/28 02:56:40;;;;;;;2.85;2.58;;;14.10;99.90;;;;;;2495981;23;20086;-72
2023/08/28 02:57:41;;;;;;;2.65;2.42;;;14.10;99.90;;;;;;2495620;23;19999;-72
2023/08/28 02:58:41;;;;;;;4.03;2.42;;;14.10;99.90;;;;;;2481892;23;20045;-72
2023/08/28 02:59:42;;;;;;;2.90;2.50;;;14.10;99.90;;;;;;2483515;23;20008;-72
2023/08/28 03:00:42;;;;;;;3.17;2.75;;;14.10;99.90;;;;;;2494612;23;20515;-72
2023/08/28 03:01:43;;;;;;;3.22;2.92;;;14.10;99.90;;;;;;2495568;23;20368;-72
2023/08/28 03:02:45;;;;;;;4.07;2.92;;;14.10;99.90;;;;;;2482737;23;20082;-72
2023/08/28 03:03:47;;;;;;;4.18;3.40;;;14.10;99.90;;;;;;2482791;23;20008;-72
2023/08/28 03:04:47;;;;;;;4.13;3.42;;;14.10;99.90;;;;;;2483445;23;20012;-72
2023/08/28 03:05:48;;;;;;;3.10;2.80;;;14.10;99.90;;;;;;2482953;23;20136;-72
2023/08/28 03:06:48;;;;;;;5.45;3.42;;;14.10;99.90;;;;;;2495429;23;20012;-72
2023/08/28 03:07:49;;;;;;;4.22;3.30;;;14.10;99.90;;;;;;2495550;23;20034;-72
2023/08/28 03:08:51;;;;;;;5.38;3.30;;;14.10;99.90;;;;;;2495803;23;20014;-72
2023/08/28 03:09:51;;;;;;;3.75;3.45;;;14.10;99.90;;;;;;2494014;23;20021;-72
2023/08/28 03:10:52;;;;;;;3.72;3.40;;;14.10;99.90;;;;;;2495543;23;20007;-72
2023/08/28 03:11:52;;;;;;;5.47;4.40;;;14.10;99.90;;;;;;2495726;23;20011;-72
2023/08/28 03:12:53;;;;;;;6.43;4.38;;;14.10;99.90;;;;;;2495160;23;20066;-72
2023/08/28 03:13:53;;;;;;;3.47;3.17;;;14.10;99.90;;;;;;2482632;23;20007;-72
2023/08/28 03:14:54;;;;;;;7.95;4.28;;;14.10;99.90;;;;;;2482959;23;20044;-72
2023/08/28 03:15:55;;;;;;;4.93;3.80;;;14.10;99.90;;;;;;2495825;23;20019;-72
2023/08/28 03:16:55;;;;;;;5.40;3.70;;;14.10;99.90;;;;;;2495702;23;20583;-71
2023/08/28 03:17:56;;;;;;;4.28;3.45;;;14.10;99.90;;;;;;2495796;23;20078;-71
2023/08/28 03:18:56;;;;;;;5.05;3.88;;;14.10;99.90;;;;;;2496036;23;19999;-71
2023/08/28 03:19:57;;;;;;;4.20;3.30;;;14.10;99.90;;;;;;2495485;23;20019;-72
2023/08/28 03:20:57;;;;;;;4.25;3.80;;;14.10;99.90;;;;;;2495512;23;20000;-71
2023/08/28 03:21:58;;;;;;;4.75;4.10;;;14.10;99.90;;;;;;2495679;23;20030;-72
2023/08/28 03:22:58;;;;;;;4.10;3.80;;;14.10;99.90;;;;;;2494163;23;20007;-71
2023/08/28 03:23:59;;;;;;;4.75;3.38;;;14.10;99.90;;;;;;2495263;23;19999;-71
2023/08/28 03:24:59;;;;;;;7.18;3.58;;;14.10;99.90;;;;;;2495535;23;20027;-71
2023/08/28 03:26:02;;;;;;;4.22;3.83;;;14.10;99.90;;;;;;2495681;23;20003;-71
2023/08/28 03:27:02;;;;;;;4.57;3.70;;;14.10;99.90;;;;;;2495649;23;20003;-71
2023/08/28 03:28:07;;;;;;;6.18;4.22;;;14.10;99.90;;;;;;2495386;23;20086;-71
2023/08/28 03:29:07;;;;;;;5.43;3.72;;;14.20;99.90;;;;;;2494488;23;20003;-72
2023/08/28 03:30:09;;;;;;;7.22;4.28;;;14.10;99.90;;;;;;2495622;23;20038;-72
2023/08/28 03:31:09;;;;;;;4.30;4.00;;;14.10;99.90;;;;;;2494642;23;20059;-72
2023/08/28 03:32:10;;;;;;;5.53;4.03;;;14.10;99.90;;;;;;2494157;23;20047;-71
2023/08/28 03:33:11;;;;;;;4.65;4.25;;;14.20;99.90;;;;;;2496092;23;20011;-71
2023/08/28 03:34:11;;;;;;;5.35;4.70;;;14.20;99.90;;;;;;2495510;23;20022;-71
2023/08/28 03:35:12;;;;;;;6.43;3.83;;;14.20;99.90;;;;;;2495653;23;19995;-72
2023/08/28 03:36:13;;;;;;;4.32;4.03;;;14.20;99.90;;;;;;2495674;23;20031;-72
2023/08/28 03:37:13;;;;;;;5.68;3.97;;;14.20;99.90;;;;;;2495162;23;20003;-72
2023/08/28 03:38:14;;;;;;;5.75;4.15;;;14.20;99.90;;;;;;2495704;23;20337;-72
2023/08/28 03:39:14;;;;;;;6.15;4.38;;;14.20;99.90;;;;;;2495785;23;20126;-71
2023/08/28 03:40:15;;;;;;;7.07;4.35;;;14.20;99.90;;;;;;2494909;23;20071;-72
2023/08/28 03:41:16;;;;;;;4.30;3.95;;;14.20;99.90;;;;;;2495957;23;20091;-72
2023/08/28 03:42:16;;;;;;;5.75;4.40;;;14.20;99.90;;;;;;2493861;23;20087;-71
2023/08/28 03:43:17;;;;;;;4.45;4.13;;;14.20;99.90;;;;;;2496030;23;20444;-71
2023/08/28 03:44:17;;;;;;;8.02;4.57;;;14.20;99.90;;;;;;2494633;23;20038;-71
2023/08/28 03:45:18;;;;;;;4.35;3.95;;;14.30;99.90;;;;;;2494415;23;20039;-72
2023/08/28 03:46:19;;;;;;;4.28;3.90;;;14.30;99.90;;;;;;2495418;23;20071;-71
2023/08/28 03:47:19;;;;;;;4.88;3.70;;;14.30;99.90;;;;;;2495661;23;20007;-71
2023/08/28 03:48:20;;;;;;;4.30;3.38;;;14.30;99.90;;;;;;2495927;23;20443;-72
2023/08/28 03:49:20;;;;;;;7.78;4.32;;;14.30;99.90;;;;;;2495447;23;20007;-71
2023/08/28 03:50:21;;;;;;;3.80;3.47;;;14.30;99.90;;;;;;2495452;23;20007;-72
2023/08/28 03:51:21;;;;;;;6.65;4.15;;;14.30;99.90;;;;;;2496091;23;20468;-72
2023/08/28 03:52:22;;;;;;;4.05;3.63;;;14.30;99.90;;;;;;2494187;23;20007;-71
2023/08/28 03:53:22;;;;;;;5.20;3.58;;;14.30;99.90;;;;;;2495627;23;20019;-71
2023/08/28 03:54:23;;;;;;;4.40;3.60;;;14.30;99.90;;;;;;2483127;23;20044;-72
2023/08/28 03:55:23;;;;;;;3.90;3.10;;;14.30;99.90;;;;;;2482350;23;20456;-72
2023/08/28 03:56:24;;;;;;;6.38;3.20;;;14.30;99.90;;;;;;2495581;23;20277;-72
2023/08/28 03:57:25;;;;;;;3.65;3.20;;;14.30;99.90;;;;;;2494061;23;20006;-72
2023/08/28 03:58:25;;;;;;;3.47;3.17;;;14.30;99.90;;;;;;2493768;23;20070;-72
2023/08/28 03:59:27;;;;;;;4.13;3.72;;;14.30;99.90;;;;;;2495895;23;20006;-71
2023/08/28 04:00:27;;;;;;;4.45;4.05;;;14.30;99.90;;;;;;2494962;23;20007;-72
2023/08/28 04:01:28;;;;;;;3.92;3.60;;;14.30;99.90;;;;;;2495864;23;20035;-71
2023/08/28 04:02:29;;;;;;;3.65;3.20;;;14.30;99.90;;;;;;2494870;23;20014;-71
2023/08/28 04:03:29;;;;;;;5.25;3.17;;;14.30;99.90;;;;;;2494684;23;20413;-72
2023/08/28 04:04:30;;;;;;;3.45;3.10;;;14.30;99.90;;;;;;2495503;23;20075;-71
2023/08/28 04:05:32;;;;;;;2.97;2.78;;;14.30;99.90;;;;;;2495600;23;20077;-72
2023/08/28 04:06:33;;;;;;;4.00;3.40;;;14.30;99.90;;;;;;2495478;23;20041;-71
2023/08/28 04:07:34;;;;;;;5.22;4.00;;;14.30;99.90;;;;;;2495964;23;20003;-72
2023/08/28 04:08:35;;;;;;;3.17;2.90;;;14.30;99.90;;;;;;2495258;23;20014;-72
2023/08/28 04:09:35;;;;;;;4.07;2.90;;;14.30;99.90;;;;;;2495158;23;20502;-72
2023/08/28 04:10:36;;;;;;;3.92;3.63;;;14.30;99.90;;;;;;2495656;23;20010;-72
2023/08/28 04:11:36;;;;;;;3.47;2.83;;;14.30;99.90;;;;;;2482218;23;20011;-72
2023/08/28 04:12:38;;;;;;;5.45;3.33;;;14.30;99.90;;;;;;2481555;23;20023;-71
2023/08/28 04:13:39;;;;;;;3.63;3.20;;;14.30;99.90;;;;;;2495217;23;20424;-72
2023/08/28 04:14:39;;;;;;;3.33;3.08;;;14.30;99.90;;;;;;2494792;23;20719;-72
2023/08/28 04:15:40;;;;;;;4.07;3.25;;;14.30;99.90;;;;;;2495973;23;20027;-72
2023/08/28 04:16:41;;;;;;;4.18;3.88;;;14.30;99.90;;;;;;2494550;23;20012;-72
2023/08/28 04:17:41;;;;;;;4.28;2.70;;;14.30;99.90;;;;;;2494257;23;19999;-72
2023/08/28 04:18:42;;;;;;;4.07;3.67;;;14.30;99.90;;;;;;2495528;23;20635;-72
2023/08/28 04:19:43;;;;;;;5.32;3.72;;;14.30;99.90;;;;;;2495447;23;20033;-72
2023/08/28 04:20:43;;;;;;;3.88;3.22;;;14.30;99.90;;;;;;2494487;23;20030;-72
2023/08/28 04:21:44;;;;;;;4.47;3.03;;;14.30;99.90;;;;;;2495896;23;20000;-72
2023/08/28 04:22:45;;;;;;;3.88;3.53;;;14.20;99.90;;;;;;2493988;23;20720;-72
2023/08/28 04:23:45;;;;;;;4.05;3.65;;;14.20;99.90;;;;;;2495667;23;20008;-72
2023/08/28 04:24:48;;;;;;;4.10;3.60;;;14.20;99.90;;;;;;2494399;23;20007;-72
2023/08/28 04:25:49;;;;;;;4.10;3.60;;;14.20;99.90;;;;;;2494934;23;20038;-72
2023/08/28 04:26:49;;;;;;;3.78;2.95;;;14.20;99.90;;;;;;2495571;23;20012;-72
2023/08/28 04:27:50;;;;;;;3.78;3.47;;;14.20;99.90;;;;;;2482559;23;20015;-72
2023/08/28 04:28:51;;;;;;;3.88;3.58;;;14.20;99.90;;;;;;2480991;23;20015;-72
2023/08/28 04:29:51;;;;;;;4.20;3.80;;;14.20;99.90;;;;;;2495581;23;20004;-72
2023/08/28 04:30:52;;;;;;;3.60;3.30;;;14.20;99.90;;;;;;2495048;23;20003;-72
2023/08/28 04:31:52;;;;;;;4.45;3.40;;;14.20;99.90;;;;;;2495929;23;20007;-72
2023/08/28 04:32:53;;;;;;;3.65;3.30;;;14.20;99.90;;;;;;2493958;23;20014;-72
2023/08/28 04:33:53;;;;;;;4.05;3.72;;;14.20;99.90;;;;;;2495355;23;20695;-72
2023/08/28 04:34:54;;;;;;;4.45;4.15;;;14.20;99.90;;;;;;2495757;23;20131;-72
2023/08/28 04:35:54;;;;;;;3.80;3.17;;;14.10;99.90;;;;;;2495350;23;20070;-72
2023/08/28 04:36:55;;;;;;;4.00;3.70;;;14.10;99.90;;;;;;2495411;23;20026;-72
2023/08/28 04:37:55;;;;;;;5.82;3.67;;;14.10;99.90;;;;;;2495229;23;20328;-72
2023/08/28 04:38:56;;;;;;;3.65;3.35;;;14.10;99.90;;;;;;2482733;23;20011;-72
2023/08/28 04:39:56;;;;;;;3.60;3.30;;;14.10;99.90;;;;;;2483406;23;20071;-72
2023/08/28 04:40:57;;;;;;;4.32;3.67;;;14.10;99.90;;;;;;2495088;23;20004;-72
2023/08/28 04:41:57;;;;;;;5.47;3.70;;;14.10;99.90;;;;;;2495113;23;20433;-72
2023/08/28 04:42:58;;;;;;;4.20;3.80;;;14.10;99.90;;;;;;2494794;23;20094;-72
2023/08/28 04:43:59;;;;;;;6.53;4.22;;;14.10;99.90;;;;;;2494900;23;20007;-72
2023/08/28 04:44:59;;;;;;;4.13;3.70;;;14.10;99.90;;;;;;2482396;23;20044;-72
2023/08/28 04:46:01;;;;;;;4.03;3.45;;;14.10;99.90;;;;;;2483012;23;20004;-72
2023/08/28 04:47:02;;;;;;;4.38;3.97;;;14.10;99.90;;;;;;2494839;23;20003;-72
2023/08/28 04:48:02;;;;;;;5.15;4.65;;;14.10;99.90;;;;;;2483386;23;20007;-72
2023/08/28 04:49:03;;;;;;;5.05;3.85;;;14.10;99.90;;;;;;2482765;23;20068;-72
2023/08/28 04:50:04;;;;;;;3.55;3.25;;;14.00;99.90;;;;;;2482750;23;20012;-72
2023/08/28 04:51:05;;;;;;;4.03;3.72;;;14.00;99.90;;;;;;2471474;23;20016;-72
2023/08/28 04:52:06;;;;;;;4.45;3.88;;;14.00;99.90;;;;;;2470312;24;20011;-72
2023/08/28 04:53:06;;;;;;;4.05;3.75;;;14.00;99.90;;;;;;2483211;23;20014;-72
2023/08/28 04:54:07;;;;;;;5.93;4.38;;;14.00;99.90;;;;;;2495218;23;19999;-72
2023/08/28 04:55:08;;;;;;;4.47;4.07;;;14.00;99.90;;;;;;2494601;23;20019;-72
2023/08/28 04:56:08;;;;;;;5.40;4.78;;;14.00;99.90;;;;;;2495699;23;20079;-72
2023/08/28 04:57:09;;;;;;;4.85;4.45;;;14.00;99.90;;;;;;2482163;23;20030;-72
2023/08/28 04:58:10;;;;;;;5.03;4.55;;;14.00;99.90;;;;;;2482656;23;20007;-72
2023/08/28 04:59:11;;;;;;;4.78;4.28;;;14.00;99.90;;;;;;2495392;23;20000;-72
2023/08/28 05:00:12;;;;;;;5.57;4.32;;;14.00;99.90;;;;;;2482776;23;20004;-72
2023/08/28 05:01:12;;;;;;;5.75;5.07;;;14.00;99.90;;;;;;2483331;23;20035;-72
2023/08/28 05:02:13;;;;;;;4.40;4.00;;;14.00;99.90;;;;;;2493737;23;20055;-72
2023/08/28 05:03:13;;;;;;;5.25;4.45;;;14.00;99.90;;;;;;2482648;23;20448;-72
2023/08/28 05:04:14;;;;;;;4.07;3.78;;;14.00;99.90;;;;;;2483251;23;20019;-72
2023/08/28 05:05:15;;;;;;;4.63;4.22;;;14.00;99.90;;;;;;2481288;23;20016;-72
2023/08/28 05:06:15;;;;;;;4.38;3.97;;;14.00;99.90;;;;;;2482770;23;20011;-72
2023/08/28 05:07:16;;;;;;;4.15;3.75;;;14.00;99.90;;;;;;2495684;23;20048;-72
2023/08/28 05:08:16;;;;;;;6.47;4.10;;;14.00;99.90;;;;;;2495028;23;20015;-72
2023/08/28 05:09:17;;;;;;;4.93;4.53;;;14.00;99.90;;;;;;2495550;23;20051;-72
2023/08/28 05:10:18;;;;;;;4.63;4.22;;;14.00;99.90;;;;;;2481854;23;20011;-72
2023/08/28 05:11:19;;;;;;;4.03;3.60;;;14.00;99.90;;;;;;2482339;23;20031;-72
2023/08/28 05:12:19;;;;;;;4.63;4.22;;;14.00;99.90;;;;;;2493642;23;20008;-72
2023/08/28 05:13:20;;;;;;;5.03;4.63;;;14.00;99.90;;;;;;2494151;23;20015;-72
2023/08/28 05:14:20;;;;;;;4.03;3.53;;;14.00;99.90;;;;;;2495633;23;19999;-72
2023/08/28 05:15:21;;;;;;;5.10;4.18;;;14.00;99.90;;;;;;2481552;23;20097;-72
2023/08/28 05:16:21;;;;;;;4.60;4.20;;;14.00;99.90;;;;;;2482258;23;20108;-72
2023/08/28 05:17:22;;;;;;;5.13;4.38;;;14.00;99.90;;;;;;2495367;23;19999;-72
2023/08/28 05:18:23;;;;;;;4.43;4.13;;;14.00;99.90;;;;;;2495161;23;20095;-72
2023/08/28 05:19:23;;;;;;;5.38;4.88;;;14.00;99.90;;;;;;2494331;23;20008;-72
2023/08/28 05:20:24;;;;;;;5.90;5.30;;;14.00;99.90;;;;;;2495345;23;20003;-72
2023/08/28 05:21:25;;;;;;;5.88;4.97;;;14.00;99.90;;;;;;2495028;23;20420;-72
2023/08/28 05:22:26;;;;;;;4.60;4.20;;;14.00;99.90;;;;;;2494343;23;20512;-72